createdAt,value
2023-05-13T00:01:44.193Z,9.80
2023-05-13T00:04:11.266Z,9.80
2023-05-13T00:06:38.422Z,9.70
2023-05-13T00:09:05.515Z,9.70
2023-05-13T00:11:32.599Z,9.60
2023-05-13T00:13:59.444Z,9.50
2023-05-13T00:16:27.983Z,9.40
2023-05-13T00:18:55.657Z,9.50
2023-05-13T00:21:23.556Z,9.50
2023-05-13T00:23:50.638Z,9.50
2023-05-13T00:26:17.681Z,9.50
2023-05-13T00:28:47.507Z,9.70
2023-05-13T00:31:14.418Z,9.60
2023-05-13T00:33:41.293Z,9.50
2023-05-13T00:36:10.197Z,9.40
2023-05-13T00:38:37.391Z,9.40
2023-05-13T00:41:04.441Z,9.40
2023-05-13T00:43:31.368Z,9.50
2023-05-13T00:45:58.869Z,9.50
2023-05-13T00:48:25.987Z,9.60
2023-05-13T00:50:52.985Z,9.70
2023-05-13T00:53:19.901Z,9.70
2023-05-13T00:55:47.161Z,9.70
2023-05-13T00:58:14.290Z,9.70
2023-05-13T01:01:00.197Z,9.70
2023-05-13T01:03:59.380Z,9.70
2023-05-13T01:06:38.461Z,9.60
2023-05-13T01:09:05.646Z,9.60
2023-05-13T01:11:36.244Z,9.60
2023-05-13T01:14:06.938Z,9.60
2023-05-13T01:16:38.518Z,9.60
2023-05-13T01:19:09.573Z,9.70
2023-05-13T01:21:38.846Z,9.60
2023-05-13T01:24:06.202Z,9.60
2023-05-13T01:26:33.348Z,9.50
2023-05-13T01:29:00.906Z,9.60
2023-05-13T01:31:29.299Z,9.60
2023-05-13T01:33:56.636Z,9.70
2023-05-13T01:36:23.829Z,9.60
2023-05-13T01:38:51.303Z,9.60
2023-05-13T01:41:19.882Z,9.50
2023-05-13T01:43:46.766Z,9.50
2023-05-13T01:46:13.792Z,9.50
2023-05-13T01:48:41.115Z,9.50
2023-05-13T01:51:09.342Z,9.50
2023-05-13T01:53:36.584Z,9.50
2023-05-13T01:56:03.642Z,9.50
2023-05-13T01:58:30.555Z,9.40
2023-05-13T02:00:57.547Z,9.40
2023-05-13T02:03:24.577Z,9.40
2023-05-13T02:05:51.779Z,9.40
2023-05-13T02:08:19.182Z,9.40
2023-05-13T02:10:54.233Z,9.40
2023-05-13T02:13:21.144Z,9.30
2023-05-13T02:15:47.976Z,9.40
2023-05-13T02:18:14.858Z,9.30
2023-05-13T02:20:41.773Z,9.30
2023-05-13T02:23:08.778Z,9.30
2023-05-13T02:25:36.089Z,9.20
2023-05-13T02:28:03.208Z,9.20
2023-05-13T02:30:30.175Z,9.30
2023-05-13T02:32:57.645Z,9.20
2023-05-13T02:35:26.057Z,9.20
2023-05-13T02:37:53.085Z,9.20
2023-05-13T02:40:21.391Z,9.10
2023-05-13T02:42:49.428Z,9.00
2023-05-13T02:45:20.539Z,8.90
2023-05-13T02:47:52.539Z,8.90
2023-05-13T02:50:20.147Z,8.80
2023-05-13T02:52:47.621Z,8.80
2023-05-13T02:55:14.823Z,8.80
2023-05-13T02:57:42.748Z,8.80
2023-05-13T03:00:09.963Z,8.90
2023-05-13T03:02:37.296Z,8.90
2023-05-13T03:05:04.569Z,9.00
2023-05-13T03:07:31.649Z,9.00
2023-05-13T03:09:58.774Z,9.00
2023-05-13T03:12:25.729Z,9.00
2023-05-13T03:14:52.718Z,8.90
2023-05-13T03:17:19.663Z,8.90
2023-05-13T03:19:46.631Z,8.80
2023-05-13T03:22:14.487Z,8.90
2023-05-13T03:24:42.834Z,8.80
2023-05-13T03:27:09.994Z,8.90
2023-05-13T03:29:37.923Z,9.00
2023-05-13T03:32:06.600Z,8.90
2023-05-13T03:34:36.253Z,9.00
2023-05-13T03:37:03.946Z,8.90
2023-05-13T03:39:31.446Z,8.80
2023-05-13T03:41:58.484Z,8.80
2023-05-13T03:44:25.696Z,8.80
2023-05-13T03:46:52.773Z,8.70
2023-05-13T03:49:20.088Z,8.70
2023-05-13T03:51:47.061Z,8.70
2023-05-13T03:54:14.290Z,8.70
2023-05-13T03:56:41.320Z,8.60
2023-05-13T03:59:08.228Z,8.70
2023-05-13T04:01:36.476Z,8.60
2023-05-13T04:04:03.532Z,8.60
2023-05-13T04:06:31.996Z,8.60
2023-05-13T04:08:59.873Z,8.60
2023-05-13T04:11:26.715Z,8.70
2023-05-13T04:13:54.790Z,8.70
2023-05-13T04:16:22.708Z,8.70
2023-05-13T04:18:49.823Z,8.70
2023-05-13T04:21:16.841Z,8.70
2023-05-13T04:23:43.744Z,8.70
2023-05-13T04:26:11.285Z,8.90
2023-05-13T04:28:38.154Z,8.90
2023-05-13T04:31:05.190Z,8.90
2023-05-13T04:33:35.461Z,8.90
2023-05-13T04:36:03.521Z,9.10
2023-05-13T04:38:31.333Z,9.10
2023-05-13T04:40:58.674Z,9.20
2023-05-13T04:43:33.946Z,9.20
2023-05-13T04:46:02.162Z,9.30
2023-05-13T04:48:29.261Z,9.30
2023-05-13T04:50:58.475Z,9.30
2023-05-13T04:53:26.015Z,9.20
2023-05-13T04:56:01.144Z,9.20
2023-05-13T04:58:29.995Z,9.30
2023-05-13T05:00:57.618Z,9.30
2023-05-13T05:03:24.937Z,9.40
2023-05-13T05:05:51.986Z,9.40
2023-05-13T05:08:19.376Z,9.50
2023-05-13T05:10:48.171Z,9.60
2023-05-13T05:13:16.101Z,9.90
2023-05-13T05:15:44.106Z,10.00
2023-05-13T05:18:11.901Z,10.20
2023-05-13T05:20:39.948Z,10.40
2023-05-13T05:23:12.678Z,10.50
2023-05-13T05:25:39.941Z,10.70
2023-05-13T05:28:06.915Z,10.80
2023-05-13T05:30:39.897Z,10.90
2023-05-13T05:33:13.105Z,11.00
2023-05-13T05:35:41.753Z,11.30
2023-05-13T05:38:12.208Z,11.60
2023-05-13T05:40:43.636Z,11.80
2023-05-13T05:43:11.318Z,12.20
2023-05-13T05:45:38.732Z,12.50
2023-05-13T05:48:07.430Z,12.70
2023-05-13T05:50:35.554Z,12.70
2023-05-13T05:53:07.023Z,12.50
2023-05-13T05:55:36.564Z,12.40
2023-05-13T05:58:05.572Z,12.40
2023-05-13T06:00:35.240Z,12.40
2023-05-13T06:03:02.585Z,12.40
2023-05-13T06:05:29.708Z,12.80
2023-05-13T06:07:56.841Z,12.70
2023-05-13T06:10:23.945Z,12.70
2023-05-13T06:12:53.841Z,12.90
2023-05-13T06:15:20.818Z,13.20
2023-05-13T06:17:48.011Z,13.30
2023-05-13T06:20:15.549Z,13.70
2023-05-13T06:22:42.437Z,13.50
2023-05-13T06:25:09.605Z,13.30
2023-05-13T06:27:36.781Z,13.10
2023-05-13T06:30:03.970Z,13.10
2023-05-13T06:32:31.057Z,13.00
2023-05-13T06:34:57.936Z,12.80
2023-05-13T06:37:24.854Z,12.90
2023-05-13T06:39:51.965Z,13.00
2023-05-13T06:42:19.659Z,13.10
2023-05-13T06:44:54.593Z,13.10
2023-05-13T06:47:27.381Z,13.00
2023-05-13T06:49:54.385Z,13.20
2023-05-13T06:52:21.389Z,13.10
2023-05-13T06:54:48.350Z,13.20
2023-05-13T06:57:15.182Z,13.10
2023-05-13T06:59:42.004Z,13.30
2023-05-13T07:02:10.168Z,13.30
2023-05-13T07:04:37.386Z,13.50
2023-05-13T07:07:04.402Z,13.50
2023-05-13T07:09:31.281Z,13.70
2023-05-13T07:11:58.138Z,13.50
2023-05-13T07:14:26.190Z,13.70
2023-05-13T07:16:53.084Z,14.10
2023-05-13T07:19:20.180Z,14.30
2023-05-13T07:21:47.117Z,14.40
2023-05-13T07:24:14.784Z,14.20
2023-05-13T07:26:42.117Z,14.40
2023-05-13T07:29:08.957Z,14.20
2023-05-13T07:31:35.939Z,14.40
2023-05-13T07:34:03.034Z,14.20
2023-05-13T07:36:29.949Z,14.00
2023-05-13T07:38:56.848Z,14.00
2023-05-13T07:41:23.769Z,14.00
2023-05-13T07:43:50.622Z,14.40
2023-05-13T07:46:17.518Z,14.40
2023-05-13T07:48:44.571Z,14.50
2023-05-13T07:51:11.667Z,14.40
2023-05-13T07:53:38.589Z,14.70
2023-05-13T07:56:05.633Z,14.90
2023-05-13T07:58:32.452Z,15.00
2023-05-13T08:00:59.465Z,15.10
2023-05-13T08:03:26.513Z,15.10
2023-05-13T08:05:53.471Z,15.10
2023-05-13T08:08:20.436Z,15.40
2023-05-13T08:10:47.274Z,15.50
2023-05-13T08:13:14.164Z,15.90
2023-05-13T08:15:41.086Z,16.00
2023-05-13T08:18:08.042Z,15.80
2023-05-13T08:20:35.227Z,15.90
2023-05-13T08:23:02.278Z,15.90
2023-05-13T08:25:29.117Z,16.20
2023-05-13T08:27:56.104Z,16.60
2023-05-13T08:30:23.038Z,16.60
2023-05-13T08:32:50.071Z,17.00
2023-05-13T08:35:17.166Z,17.30
2023-05-13T08:37:44.066Z,16.80
2023-05-13T08:40:11.360Z,16.60
2023-05-13T08:42:39.166Z,16.80
2023-05-13T08:45:07.859Z,17.30
2023-05-13T08:47:50.505Z,17.50
2023-05-13T08:50:17.868Z,17.80
2023-05-13T08:52:44.794Z,18.20
2023-05-13T08:55:11.667Z,18.50
2023-05-13T08:57:39.249Z,18.40
2023-05-13T09:00:06.523Z,18.20
2023-05-13T09:02:33.402Z,19.00
2023-05-13T09:05:02.915Z,19.00
2023-05-13T09:07:33.158Z,18.60
2023-05-13T09:10:00.158Z,18.50
2023-05-13T09:12:42.453Z,17.70
2023-05-13T09:15:10.296Z,18.40
2023-05-13T09:17:38.706Z,18.80
2023-05-13T09:20:09.486Z,19.00
2023-05-13T09:22:36.588Z,18.60
2023-05-13T09:25:04.224Z,18.70
2023-05-13T09:27:38.433Z,18.70
2023-05-13T09:30:06.133Z,19.10
2023-05-13T09:32:33.062Z,19.10
2023-05-13T09:35:16.720Z,19.90
2023-05-13T09:37:47.286Z,20.20
2023-05-13T09:40:15.491Z,19.40
2023-05-13T09:42:45.695Z,19.40
2023-05-13T09:45:13.875Z,19.20
2023-05-13T09:47:41.219Z,19.30
2023-05-13T09:50:09.252Z,19.60
2023-05-13T09:52:36.995Z,19.40
2023-05-13T09:55:05.213Z,19.70
2023-05-13T09:57:32.397Z,19.70
2023-05-13T09:59:59.993Z,19.40
2023-05-13T10:02:27.252Z,19.20
2023-05-13T10:04:58.311Z,18.90
2023-05-13T10:07:25.978Z,19.00
2023-05-13T10:09:54.533Z,18.70
2023-05-13T10:12:22.754Z,19.00
2023-05-13T10:14:53.218Z,18.80
2023-05-13T10:17:21.169Z,18.80
2023-05-13T10:19:49.059Z,18.70
2023-05-13T10:22:16.821Z,18.70
2023-05-13T10:24:44.234Z,18.80
2023-05-13T10:27:11.312Z,18.90
2023-05-13T10:29:39.221Z,19.60
2023-05-13T10:32:07.288Z,19.80
2023-05-13T10:34:34.945Z,20.70
2023-05-13T10:37:18.922Z,20.60
2023-05-13T10:39:48.951Z,20.20
2023-05-13T10:42:27.593Z,19.60
2023-05-13T10:44:55.503Z,19.20
2023-05-13T10:47:22.470Z,18.70
2023-05-13T10:49:53.031Z,18.70
2023-05-13T10:52:20.135Z,19.10
2023-05-13T10:54:59.239Z,19.00
2023-05-13T10:57:30.061Z,19.40
2023-05-13T11:00:12.096Z,19.70
2023-05-13T11:02:39.145Z,20.30
2023-05-13T11:05:06.225Z,20.00
2023-05-13T11:07:37.515Z,20.30
2023-05-13T11:10:04.668Z,20.50
2023-05-13T11:12:31.490Z,21.00
2023-05-13T11:14:58.747Z,21.00
2023-05-13T11:17:26.102Z,20.80
2023-05-13T11:19:53.461Z,20.50
2023-05-13T11:22:21.298Z,20.20
2023-05-13T11:25:09.123Z,19.70
2023-05-13T11:27:39.895Z,20.00
2023-05-13T11:30:07.962Z,20.40
2023-05-13T11:32:47.122Z,20.80
2023-05-13T11:35:18.983Z,21.20
2023-05-13T11:37:45.870Z,20.90
2023-05-13T11:40:21.560Z,20.70
2023-05-13T11:42:48.897Z,20.70
2023-05-13T11:45:17.025Z,21.10
2023-05-13T11:47:44.397Z,20.70
2023-05-13T11:50:18.604Z,20.90
2023-05-13T11:52:46.201Z,21.20
2023-05-13T11:55:24.231Z,21.30
2023-05-13T11:57:51.210Z,21.30
2023-05-13T12:00:18.152Z,22.50
2023-05-13T12:02:46.257Z,22.20
2023-05-13T12:05:13.281Z,21.50
2023-05-13T12:07:40.296Z,21.30
2023-05-13T12:10:07.733Z,20.70
2023-05-13T12:12:37.565Z,20.70
2023-05-13T12:15:06.662Z,20.90
2023-05-13T12:17:34.235Z,21.10
2023-05-13T12:20:08.452Z,21.00
2023-05-13T12:22:35.878Z,21.10
2023-05-13T12:25:23.390Z,20.70
2023-05-13T12:27:53.684Z,20.50
2023-05-13T12:30:20.567Z,19.60
2023-05-13T12:32:47.511Z,19.00
2023-05-13T12:35:14.657Z,19.10
2023-05-13T12:37:42.021Z,19.10
2023-05-13T12:40:09.590Z,19.30
2023-05-13T12:42:36.476Z,19.60
2023-05-13T12:45:03.507Z,20.10
2023-05-13T12:47:30.417Z,20.50
2023-05-13T12:50:01.006Z,20.50
2023-05-13T12:52:27.999Z,20.50
2023-05-13T12:54:54.819Z,20.10
2023-05-13T12:57:21.894Z,19.50
2023-05-13T12:59:48.724Z,18.70
2023-05-13T13:02:15.866Z,18.40
2023-05-13T13:04:42.845Z,18.40
2023-05-13T13:07:12.746Z,18.40
2023-05-13T13:09:39.671Z,19.10
2023-05-13T13:12:06.757Z,19.50
2023-05-13T13:14:33.740Z,19.30
2023-05-13T13:17:00.756Z,19.70
2023-05-13T13:19:27.667Z,19.90
2023-05-13T13:21:54.532Z,19.80
2023-05-13T13:24:21.392Z,19.50
2023-05-13T13:26:50.137Z,19.50
2023-05-13T13:29:17.209Z,19.90
2023-05-13T13:31:44.173Z,20.10
2023-05-13T13:34:12.182Z,20.20
2023-05-13T13:36:39.297Z,20.00
2023-05-13T13:39:06.304Z,19.80
2023-05-13T13:41:34.500Z,19.80
2023-05-13T13:44:01.356Z,19.70
2023-05-13T13:46:28.324Z,19.40
2023-05-13T13:48:55.205Z,19.00
2023-05-13T13:51:22.201Z,19.10
2023-05-13T13:53:49.550Z,19.60
2023-05-13T13:56:16.445Z,20.70
2023-05-13T13:58:43.294Z,21.20
2023-05-13T14:01:10.159Z,21.30
2023-05-13T14:03:37.138Z,21.60
2023-05-13T14:06:04.407Z,22.80
2023-05-13T14:08:31.385Z,23.60
2023-05-13T14:10:58.296Z,22.60
2023-05-13T14:13:25.130Z,21.40
2023-05-13T14:15:52.044Z,20.70
2023-05-13T14:18:19.031Z,20.30
2023-05-13T14:20:47.586Z,20.60
2023-05-13T14:23:14.581Z,22.70
2023-05-13T14:25:41.497Z,23.10
2023-05-13T14:28:08.392Z,23.40
2023-05-13T14:30:35.498Z,23.00
2023-05-13T14:33:02.678Z,22.20
2023-05-13T14:35:29.714Z,22.90
2023-05-13T14:37:56.940Z,23.40
2023-05-13T14:40:24.080Z,23.80
2023-05-13T14:42:51.115Z,25.00
2023-05-13T14:45:18.703Z,25.50
2023-05-13T14:47:45.977Z,25.80
2023-05-13T14:50:15.093Z,24.30
2023-05-13T14:52:42.078Z,22.40
2023-05-13T14:55:09.223Z,21.40
2023-05-13T14:57:36.214Z,20.40
2023-05-13T15:00:03.348Z,19.70
2023-05-13T15:02:30.411Z,19.50
2023-05-13T15:04:57.423Z,19.20
2023-05-13T15:07:24.375Z,19.20
2023-05-13T15:09:51.297Z,19.30
2023-05-13T15:12:18.134Z,19.30
2023-05-13T15:14:51.299Z,19.90
2023-05-13T15:17:18.295Z,21.30
2023-05-13T15:19:45.356Z,23.50
2023-05-13T15:22:12.566Z,23.80
2023-05-13T15:24:39.497Z,25.70
2023-05-13T15:27:06.462Z,26.00
2023-05-13T15:29:33.331Z,24.70
2023-05-13T15:32:00.197Z,23.20
2023-05-13T15:34:27.207Z,21.70
2023-05-13T15:36:54.105Z,20.50
2023-05-13T15:39:21.346Z,20.30
2023-05-13T15:41:48.264Z,20.00
2023-05-13T15:44:15.372Z,20.80
2023-05-13T15:46:42.522Z,22.30
2023-05-13T15:49:09.494Z,23.90
2023-05-13T15:51:36.497Z,26.10
2023-05-13T15:54:03.621Z,27.60
2023-05-13T15:56:30.697Z,26.70
2023-05-13T15:58:57.687Z,25.10
2023-05-13T16:01:24.692Z,24.40
2023-05-13T16:03:51.586Z,23.70
2023-05-13T16:06:18.469Z,22.70
2023-05-13T16:08:45.409Z,24.50
2023-05-13T16:11:13.182Z,26.10
2023-05-13T16:13:40.274Z,27.00
2023-05-13T16:16:07.390Z,27.20
2023-05-13T16:18:34.290Z,27.50
2023-05-13T16:21:01.183Z,27.30
2023-05-13T16:23:28.930Z,27.30
2023-05-13T16:25:55.858Z,27.80
2023-05-13T16:28:22.779Z,27.80
2023-05-13T16:30:49.655Z,28.20
2023-05-13T16:33:17.850Z,29.50
2023-05-13T16:35:44.814Z,27.40
2023-05-13T16:38:11.706Z,26.10
2023-05-13T16:40:38.746Z,24.10
2023-05-13T16:43:05.937Z,22.20
2023-05-13T16:45:33.071Z,20.90
2023-05-13T16:48:00.051Z,20.30
2023-05-13T16:50:27.119Z,19.50
2023-05-13T16:52:54.821Z,19.70
2023-05-13T16:55:22.563Z,21.30
2023-05-13T16:57:49.576Z,22.40
2023-05-13T17:00:16.923Z,24.20
2023-05-13T17:02:43.939Z,25.30
2023-05-13T17:05:10.986Z,25.40
2023-05-13T17:07:37.990Z,24.80
2023-05-13T17:10:05.117Z,24.50
2023-05-13T17:12:32.544Z,24.80
2023-05-13T17:14:59.568Z,25.00
2023-05-13T17:17:26.739Z,25.10
2023-05-13T17:19:53.695Z,25.10
2023-05-13T17:22:20.834Z,23.70
2023-05-13T17:24:47.800Z,22.30
2023-05-13T17:27:14.817Z,20.60
2023-05-13T17:29:41.768Z,19.90
2023-05-13T17:32:08.629Z,19.10
2023-05-13T17:34:35.589Z,18.60
2023-05-13T17:37:02.465Z,18.10
2023-05-13T17:39:29.399Z,17.80
2023-05-13T17:41:56.420Z,17.70
2023-05-13T17:44:24.156Z,17.60
2023-05-13T17:46:51.097Z,17.70
2023-05-13T17:49:18.083Z,17.50
2023-05-13T17:51:45.332Z,17.50
2023-05-13T17:54:12.436Z,17.60
2023-05-13T17:56:39.383Z,17.60
2023-05-13T17:59:06.971Z,17.60
2023-05-13T18:01:33.845Z,17.30
2023-05-13T18:04:00.881Z,17.10
2023-05-13T18:06:27.770Z,17.20
2023-05-13T18:08:54.765Z,17.00
2023-05-13T18:11:22.150Z,17.10
2023-05-13T18:13:49.070Z,17.00
2023-05-13T18:16:18.743Z,16.90
2023-05-13T18:18:48.588Z,16.60
2023-05-13T18:21:15.833Z,16.50
2023-05-13T18:23:45.801Z,16.30
2023-05-13T18:26:12.800Z,16.30
2023-05-13T18:28:41.114Z,16.00
2023-05-13T18:31:08.131Z,15.80
2023-05-13T18:33:35.003Z,15.70
2023-05-13T18:36:02.000Z,15.60
2023-05-13T18:38:28.920Z,15.40
2023-05-13T18:40:55.926Z,15.30
2023-05-13T18:43:22.836Z,15.30
2023-05-13T18:45:49.760Z,15.20
2023-05-13T18:48:16.728Z,15.10
2023-05-13T18:50:43.596Z,15.00
2023-05-13T18:53:10.537Z,14.80
2023-05-13T18:55:37.651Z,14.80
2023-05-13T18:58:05.316Z,14.80
2023-05-13T19:00:32.204Z,14.70
2023-05-13T19:02:59.174Z,14.60
2023-05-13T19:05:26.158Z,14.60
2023-05-13T19:07:53.130Z,14.60
2023-05-13T19:10:20.274Z,14.40
2023-05-13T19:12:47.314Z,14.30
2023-05-13T19:15:14.248Z,14.40
2023-05-13T19:17:42.257Z,14.40
2023-05-13T19:20:09.488Z,14.40
2023-05-13T19:22:36.456Z,14.50
2023-05-13T19:25:03.452Z,14.50
2023-05-13T19:27:31.493Z,14.50
2023-05-13T19:29:58.621Z,14.50
2023-05-13T19:32:25.577Z,14.70
2023-05-13T19:34:52.525Z,14.70
2023-05-13T19:37:19.502Z,14.60
2023-05-13T19:39:46.525Z,14.60
2023-05-13T19:42:14.630Z,14.50
2023-05-13T19:44:42.269Z,14.50
2023-05-13T19:47:09.245Z,14.50
2023-05-13T19:49:36.160Z,14.50
2023-05-13T19:52:03.167Z,14.70
2023-05-13T19:54:30.111Z,14.50
2023-05-13T19:56:57.038Z,14.30
2023-05-13T19:59:23.931Z,14.10
2023-05-13T20:01:51.068Z,14.10
2023-05-13T20:04:19.012Z,14.20
2023-05-13T20:06:46.040Z,14.20
2023-05-13T20:09:13.045Z,14.10
2023-05-13T20:11:39.943Z,14.10
2023-05-13T20:14:06.783Z,14.40
2023-05-13T20:16:33.613Z,14.20
2023-05-13T20:19:00.698Z,14.10
2023-05-13T20:21:27.707Z,14.00
2023-05-13T20:23:54.682Z,14.00
2023-05-13T20:26:22.062Z,13.90
2023-05-13T20:28:51.422Z,14.10
2023-05-13T20:31:18.375Z,14.20
2023-05-13T20:33:45.281Z,14.40
2023-05-13T20:36:12.215Z,14.30
2023-05-13T20:38:39.245Z,14.30
2023-05-13T20:41:06.279Z,14.20
2023-05-13T20:43:34.540Z,14.30
2023-05-13T20:46:02.068Z,14.30
2023-05-13T20:48:32.060Z,14.20
2023-05-13T20:50:59.652Z,14.20
2023-05-13T20:53:26.573Z,14.20
2023-05-13T20:55:53.472Z,14.00
2023-05-13T20:58:20.589Z,14.00
2023-05-13T21:00:47.443Z,13.90
2023-05-13T21:03:14.415Z,14.10
2023-05-13T21:05:41.571Z,14.20
2023-05-13T21:08:08.687Z,14.20
2023-05-13T21:10:35.639Z,14.00
2023-05-13T21:13:02.498Z,13.90
2023-05-13T21:15:29.365Z,14.00
2023-05-13T21:17:56.283Z,13.90
2023-05-13T21:20:23.630Z,13.90
2023-05-13T21:22:50.827Z,13.90
2023-05-13T21:25:17.797Z,13.90
2023-05-13T21:27:44.720Z,13.90
2023-05-13T21:30:12.636Z,13.90
2023-05-13T21:32:39.558Z,13.90
2023-05-13T21:35:06.898Z,13.80
2023-05-13T21:37:33.908Z,13.90
2023-05-13T21:40:00.957Z,13.80
2023-05-13T21:42:27.795Z,13.80
2023-05-13T21:44:54.742Z,13.90
2023-05-13T21:47:22.610Z,13.90
2023-05-13T21:49:49.643Z,13.80
2023-05-13T21:52:16.769Z,13.90
2023-05-13T21:54:43.655Z,13.90
2023-05-13T21:57:11.288Z,13.90
2023-05-13T21:59:38.157Z,14.10
2023-05-13T22:02:05.125Z,13.90
2023-05-13T22:04:32.101Z,13.90
2023-05-13T22:06:59.034Z,13.80
2023-05-13T22:09:25.898Z,13.70
2023-05-13T22:11:52.782Z,13.70
2023-05-13T22:14:19.639Z,13.80
2023-05-13T22:16:51.884Z,13.80
2023-05-13T22:19:24.846Z,13.70
2023-05-13T22:21:52.041Z,13.70
2023-05-13T22:24:19.067Z,13.60
2023-05-13T22:26:45.884Z,13.60
2023-05-13T22:29:12.870Z,13.60
2023-05-13T22:31:39.824Z,13.70
2023-05-13T22:34:06.900Z,13.70
2023-05-13T22:36:33.737Z,13.70
2023-05-13T22:39:00.704Z,13.70
2023-05-13T22:41:27.560Z,13.60
2023-05-13T22:43:54.490Z,13.70
2023-05-13T22:46:21.697Z,13.70
2023-05-13T22:48:48.537Z,13.60
2023-05-13T22:51:15.408Z,13.70
2023-05-13T22:53:42.304Z,13.50
2023-05-13T22:56:09.288Z,13.60
2023-05-13T22:58:36.220Z,13.50
2023-05-13T23:01:03.122Z,13.50
2023-05-13T23:03:30.018Z,13.40
2023-05-13T23:05:56.914Z,13.10
2023-05-13T23:08:23.837Z,13.00
2023-05-13T23:10:50.792Z,12.90
2023-05-13T23:13:17.830Z,12.60
2023-05-13T23:15:44.886Z,12.50
2023-05-13T23:18:11.790Z,12.40
2023-05-13T23:20:38.638Z,12.40
2023-05-13T23:23:05.699Z,12.30
2023-05-13T23:25:32.717Z,12.40
2023-05-13T23:27:59.639Z,12.20
2023-05-13T23:30:26.544Z,12.00
2023-05-13T23:32:53.419Z,11.90
2023-05-13T23:35:20.316Z,11.90
2023-05-13T23:37:47.189Z,11.80
2023-05-13T23:40:14.172Z,11.70
2023-05-13T23:42:43.036Z,11.70
2023-05-13T23:45:10.169Z,11.70
2023-05-13T23:47:37.127Z,11.90
2023-05-13T23:50:04.357Z,11.80
2023-05-13T23:52:31.391Z,11.70
2023-05-13T23:54:58.313Z,11.90
2023-05-13T23:57:25.308Z,11.70
2023-05-13T23:59:52.195Z,11.70
